createdAt,value
2023-01-27T00:01:38.996Z,100491.08
2023-01-27T00:04:07.597Z,100494.20
2023-01-27T00:06:36.231Z,100495.77
2023-01-27T00:09:06.395Z,100492.48
2023-01-27T00:11:53.693Z,100495.73
2023-01-27T00:14:21.745Z,100496.23
2023-01-27T00:16:50.040Z,100489.40
2023-01-27T00:19:19.975Z,100486.02
2023-01-27T00:22:07.004Z,100482.98
2023-01-27T00:24:38.079Z,100479.95
2023-01-27T00:27:09.120Z,100480.54
2023-01-27T00:29:40.194Z,100483.19
2023-01-27T00:32:27.043Z,100478.06
2023-01-27T00:34:55.088Z,100482.39
2023-01-27T00:37:24.175Z,100478.47
2023-01-27T00:39:52.079Z,100476.27
2023-01-27T00:42:20.245Z,100479.73
2023-01-27T00:45:06.974Z,100477.32
2023-01-27T00:47:35.578Z,100478.52
2023-01-27T00:50:04.508Z,100480.42
2023-01-27T00:52:32.506Z,100481.80
2023-01-27T00:55:00.523Z,100475.92
2023-01-27T00:57:29.315Z,100473.88
2023-01-27T00:59:59.524Z,100467.83
2023-01-27T01:02:27.868Z,100470.95
2023-01-27T01:04:56.093Z,100468.89
2023-01-27T01:07:25.149Z,100469.40
2023-01-27T01:09:53.106Z,100462.14
2023-01-27T01:12:22.674Z,100467.62
2023-01-27T01:14:51.393Z,100461.21
2023-01-27T01:17:19.779Z,100455.67
2023-01-27T01:19:47.937Z,100460.67
2023-01-27T01:22:15.891Z,100462.55
2023-01-27T01:24:43.867Z,100454.08
2023-01-27T01:27:14.141Z,100456.83
2023-01-27T01:29:42.108Z,100453.73
2023-01-27T01:32:11.646Z,100445.98
2023-01-27T01:34:39.629Z,100443.42
2023-01-27T01:37:07.726Z,100435.52
2023-01-27T01:39:37.823Z,100434.11
2023-01-27T01:42:07.265Z,100435.97
2023-01-27T01:44:35.267Z,100430.95
2023-01-27T01:47:03.155Z,100433.20
2023-01-27T01:49:36.631Z,100432.50
2023-01-27T01:52:07.888Z,100433.86
2023-01-27T01:54:45.008Z,100427.73
2023-01-27T01:57:17.904Z,100426.34
2023-01-27T01:59:51.871Z,100421.73
2023-01-27T02:02:22.253Z,100418.11
2023-01-27T02:04:55.081Z,100416.22
2023-01-27T02:07:45.065Z,100413.31
2023-01-27T02:10:15.787Z,100411.79
2023-01-27T02:12:43.896Z,100411.95
2023-01-27T02:15:12.489Z,100415.25
2023-01-27T02:17:42.141Z,100408.73
2023-01-27T02:20:24.218Z,100414.24
2023-01-27T02:23:03.717Z,100415.83
2023-01-27T02:25:34.659Z,100415.66
2023-01-27T02:28:07.431Z,100418.11
2023-01-27T02:30:35.572Z,100416.08
2023-01-27T02:33:14.963Z,100412.14
2023-01-27T02:35:47.671Z,100411.47
2023-01-27T02:38:15.572Z,100411.82
2023-01-27T02:40:43.466Z,100418.67
2023-01-27T02:43:14.259Z,100418.49
2023-01-27T02:45:42.896Z,100423.31
2023-01-27T02:48:10.868Z,100425.04
2023-01-27T02:50:38.818Z,100424.69
2023-01-27T02:53:07.462Z,100429.54
2023-01-27T02:55:37.407Z,100427.31
2023-01-27T02:58:06.318Z,100424.90
2023-01-27T03:00:43.995Z,100420.46
2023-01-27T03:03:13.759Z,100417.89
2023-01-27T03:05:41.753Z,100414.96
2023-01-27T03:08:10.062Z,100407.74
2023-01-27T03:10:38.302Z,100408.27
2023-01-27T03:13:06.359Z,100404.13
2023-01-27T03:15:53.344Z,100398.95
2023-01-27T03:18:22.685Z,100398.25
2023-01-27T03:20:50.789Z,100398.60
2023-01-27T03:23:19.554Z,100398.96
2023-01-27T03:25:50.695Z,100398.11
2023-01-27T03:28:19.104Z,100395.52
2023-01-27T03:31:19.649Z,100394.85
2023-01-27T03:33:58.276Z,100390.02
2023-01-27T03:36:52.246Z,100386.04
2023-01-27T03:39:40.185Z,100380.19
2023-01-27T03:42:27.046Z,100375.89
2023-01-27T03:45:15.223Z,100379.02
2023-01-27T03:47:43.352Z,100380.73
2023-01-27T03:50:13.910Z,100374.02
2023-01-27T03:53:02.996Z,100378.50
2023-01-27T03:55:31.810Z,100381.08
2023-01-27T03:58:14.596Z,100376.77
2023-01-27T04:00:43.215Z,100376.05
2023-01-27T04:03:29.843Z,100380.16
2023-01-27T04:06:16.764Z,100387.52
2023-01-27T04:08:44.855Z,100395.73
2023-01-27T04:11:32.056Z,100395.31
2023-01-27T04:14:02.009Z,100393.39
2023-01-27T04:16:30.300Z,100396.96
2023-01-27T04:18:59.488Z,100394.71
2023-01-27T04:21:29.987Z,100395.36
2023-01-27T04:23:57.972Z,100395.86
2023-01-27T04:26:26.251Z,100396.34
2023-01-27T04:28:54.310Z,100397.19
2023-01-27T04:31:22.459Z,100397.54
2023-01-27T04:33:50.991Z,100394.92
2023-01-27T04:36:21.667Z,100396.63
2023-01-27T04:38:49.770Z,100403.67
2023-01-27T04:41:17.727Z,100400.89
2023-01-27T04:43:45.853Z,100396.91
2023-01-27T04:46:13.816Z,100402.91
2023-01-27T04:48:41.748Z,100405.50
2023-01-27T04:51:09.623Z,100402.58
2023-01-27T04:53:37.700Z,100407.19
2023-01-27T04:56:14.868Z,100407.86
2023-01-27T04:58:42.843Z,100402.52
2023-01-27T05:01:10.767Z,100404.25
2023-01-27T05:03:39.570Z,100403.54
2023-01-27T05:06:08.732Z,100396.29
2023-01-27T05:08:36.824Z,100396.80
2023-01-27T05:11:05.247Z,100397.65
2023-01-27T05:13:33.644Z,100396.97
2023-01-27T05:16:16.376Z,100403.84
2023-01-27T05:18:44.790Z,100399.52
2023-01-27T05:21:16.503Z,100401.72
2023-01-27T05:23:45.029Z,100406.87
2023-01-27T05:26:21.138Z,100407.34
2023-01-27T05:28:49.801Z,100407.66
2023-01-27T05:31:22.971Z,100409.56
2023-01-27T05:33:52.633Z,100407.67
2023-01-27T05:36:22.254Z,100409.78
2023-01-27T05:38:50.388Z,100413.40
2023-01-27T05:41:19.060Z,100411.33
2023-01-27T05:43:51.132Z,100411.33
2023-01-27T05:46:21.128Z,100409.08
2023-01-27T05:48:50.945Z,100406.30
2023-01-27T05:51:20.648Z,100403.73
2023-01-27T05:53:48.950Z,100406.30
2023-01-27T05:56:18.693Z,100407.15
2023-01-27T05:58:49.048Z,100407.15
2023-01-27T06:01:24.560Z,100407.50
2023-01-27T06:03:52.577Z,100406.64
2023-01-27T06:06:23.800Z,100406.65
2023-01-27T06:08:52.161Z,100409.23
2023-01-27T06:11:20.647Z,100411.11
2023-01-27T06:13:49.855Z,100415.58
2023-01-27T06:16:19.326Z,100414.71
2023-01-27T06:18:47.775Z,100416.09
2023-01-27T06:21:16.229Z,100419.02
2023-01-27T06:23:44.422Z,100423.48
2023-01-27T06:26:16.360Z,100426.73
2023-01-27T06:28:44.562Z,100430.70
2023-01-27T06:31:14.684Z,100431.55
2023-01-27T06:33:42.967Z,100429.64
2023-01-27T06:36:12.863Z,100429.24
2023-01-27T06:38:40.981Z,100427.52
2023-01-27T06:41:09.032Z,100424.23
2023-01-27T06:43:40.940Z,100417.89
2023-01-27T06:46:09.073Z,100416.85
2023-01-27T06:48:38.138Z,100418.23
2023-01-27T06:51:06.674Z,100419.39
2023-01-27T06:53:37.476Z,100420.79
2023-01-27T06:56:06.221Z,100417.37
2023-01-27T06:58:36.845Z,100418.42
2023-01-27T07:01:06.022Z,100418.94
2023-01-27T07:06:01.149Z,100416.09
2023-01-27T07:08:29.577Z,100416.96
2023-01-27T07:10:57.806Z,100418.02
2023-01-27T07:13:26.227Z,100419.02
2023-01-27T07:15:56.341Z,100419.73
2023-01-27T07:18:24.425Z,100420.03
2023-01-27T07:20:52.895Z,100421.05
2023-01-27T07:23:21.226Z,100419.52
2023-01-27T07:25:49.659Z,100425.52
2023-01-27T07:28:20.572Z,100424.47
2023-01-27T07:30:48.802Z,100422.38
2023-01-27T07:33:17.740Z,100426.15
2023-01-27T07:35:48.377Z,100427.70
2023-01-27T07:38:16.529Z,100425.46
2023-01-27T07:40:44.504Z,100424.77
2023-01-27T07:43:12.669Z,100425.64
2023-01-27T07:45:41.779Z,100427.03
2023-01-27T07:48:10.002Z,100425.14
2023-01-27T12:31:55.430Z,100305.14
2023-01-27T12:34:26.605Z,100303.77
2023-01-27T12:36:55.073Z,100296.59
2023-01-27T12:39:29.858Z,100292.64
2023-01-27T12:41:58.160Z,100291.66
2023-01-27T12:44:28.973Z,100288.25
2023-01-27T12:47:00.191Z,100288.27
2023-01-27T12:49:36.222Z,100291.06
2023-01-27T12:52:05.278Z,100297.96
2023-01-27T12:54:35.501Z,100299.83
2023-01-27T12:57:12.694Z,100299.64
2023-01-27T12:59:55.384Z,100301.70
2023-01-27T13:02:25.279Z,100303.73
2023-01-27T13:05:03.606Z,100303.19
2023-01-27T13:07:51.649Z,100305.23
2023-01-27T13:10:23.869Z,100303.33
2023-01-27T13:12:56.442Z,100301.61
2023-01-27T13:15:26.137Z,100305.07
2023-01-27T13:18:11.717Z,100310.23
2023-01-27T13:20:48.608Z,100309.02
2023-01-27T13:23:35.174Z,100306.45
2023-01-27T13:26:13.119Z,100303.02
2023-01-27T13:28:54.230Z,100303.54
2023-01-27T13:31:33.320Z,100308.01
2023-01-27T13:34:05.780Z,100308.83
2023-01-27T13:36:54.072Z,100304.84
2023-01-27T13:39:40.766Z,100303.42
2023-01-27T13:42:42.565Z,100300.14
2023-01-27T13:45:29.651Z,100303.06
2023-01-27T13:48:00.245Z,100303.11
2023-01-27T13:50:52.951Z,100304.05
2023-01-27T13:53:20.967Z,100304.61
2023-01-27T13:56:14.602Z,100305.80
2023-01-27T13:58:58.421Z,100304.04
2023-01-27T14:01:45.223Z,100305.01
2023-01-27T14:04:35.582Z,100306.48
2023-01-27T14:07:25.763Z,100309.70
2023-01-27T14:10:17.202Z,100314.15
2023-01-27T14:12:47.376Z,100319.44
2023-01-27T14:15:26.380Z,100322.90
2023-01-27T14:18:24.576Z,100320.16
2023-01-27T14:21:00.310Z,100321.64
2023-01-27T14:23:43.086Z,100321.77
2023-01-27T14:26:51.530Z,100321.40
2023-01-27T14:29:31.197Z,100328.73
2023-01-27T14:32:29.876Z,100331.38
2023-01-27T14:35:36.353Z,100331.95
2023-01-27T14:38:10.674Z,100334.45
2023-01-27T14:41:12.782Z,100334.41
2023-01-27T14:44:16.136Z,100333.40
2023-01-27T14:46:50.471Z,100335.48
2023-01-27T14:49:40.761Z,100335.60
2023-01-27T14:52:31.905Z,100336.20
2023-01-27T14:55:37.725Z,100340.77
2023-01-27T14:58:08.934Z,100339.66
2023-01-27T15:00:56.174Z,100341.95
2023-01-27T15:03:50.453Z,100339.66
2023-01-27T15:06:29.706Z,100340.96
2023-01-27T15:09:19.687Z,100344.17
2023-01-27T15:12:06.231Z,100353.19
2023-01-27T15:14:49.411Z,100350.94
2023-01-27T15:17:21.420Z,100348.31
2023-01-27T15:20:01.826Z,100346.89
2023-01-27T15:22:37.029Z,100346.14
2023-01-27T15:25:31.001Z,100346.65
2023-01-27T15:28:01.724Z,100344.55
2023-01-27T15:30:33.308Z,100342.17
2023-01-27T15:33:01.585Z,100345.09
2023-01-27T15:35:38.075Z,100345.09
2023-01-27T15:38:08.316Z,100342.86
2023-01-27T15:41:11.971Z,100340.96
2023-01-27T15:43:44.173Z,100340.77
2023-01-27T15:46:38.924Z,100343.39
2023-01-27T15:49:15.382Z,100342.94
2023-01-27T20:00:28.239Z,100388.60
2023-01-27T20:02:56.840Z,100383.22
2023-01-27T20:05:26.140Z,100381.21
2023-01-27T20:07:55.593Z,100383.19
2023-01-27T20:10:28.144Z,100384.09
2023-01-27T20:12:57.902Z,100383.36
2023-01-27T20:15:27.435Z,100376.65
2023-01-27T20:17:55.619Z,100375.05
2023-01-27T20:20:24.118Z,100372.63
2023-01-27T20:22:53.074Z,100373.75
2023-01-27T20:25:24.060Z,100372.84
2023-01-27T20:27:54.700Z,100372.95
2023-01-27T20:30:27.554Z,100368.64
2023-01-27T20:32:56.482Z,100367.88
2023-01-27T20:35:24.931Z,100364.35
2023-01-27T20:37:53.191Z,100363.41
2023-01-27T20:40:23.171Z,100366.23
2023-01-27T20:42:51.484Z,100364.80
2023-01-27T20:45:19.545Z,100362.81
2023-01-27T20:47:51.321Z,100360.86
2023-01-27T20:50:20.017Z,100360.79
2023-01-27T20:52:51.181Z,100365.34
2023-01-27T20:55:21.716Z,100364.20
2023-01-27T20:57:50.731Z,100363.44
2023-01-27T21:00:20.591Z,100359.64
2023-01-27T21:02:48.938Z,100359.73
2023-01-27T21:05:19.271Z,100359.17
2023-01-27T21:07:47.478Z,100357.38
2023-01-27T21:10:18.869Z,100357.48
2023-01-27T21:13:06.607Z,100356.88
2023-01-27T21:15:35.677Z,100364.48
2023-01-27T21:18:03.899Z,100361.44
2023-01-27T21:20:31.877Z,100356.02
2023-01-27T21:22:59.817Z,100360.78
2023-01-27T21:25:29.603Z,100362.08
2023-01-27T21:27:59.924Z,100359.66
2023-01-27T21:30:30.105Z,100354.08
2023-01-27T21:32:58.075Z,100348.70
2023-01-27T21:35:26.418Z,100351.92
2023-01-27T21:37:54.369Z,100352.73
2023-01-27T21:40:22.324Z,100351.84
2023-01-27T21:43:09.136Z,100348.77
2023-01-27T21:45:37.032Z,100353.48
2023-01-27T21:48:05.278Z,100349.24
2023-01-27T21:50:33.946Z,100343.73
2023-01-27T21:53:07.433Z,100342.77
2023-01-27T21:55:35.467Z,100345.63
2023-01-27T21:58:03.431Z,100342.35
2023-01-27T22:00:48.979Z,100338.08
2023-01-27T22:03:17.309Z,100332.73
2023-01-27T22:05:45.792Z,100328.92
2023-01-27T22:08:15.828Z,100323.95
2023-01-27T22:10:43.906Z,100322.17
2023-01-27T22:13:12.004Z,100320.05
2023-01-27T22:15:40.821Z,100319.42
2023-01-27T22:18:09.113Z,100311.95
2023-01-27T22:20:37.219Z,100313.00
2023-01-27T22:23:05.486Z,100314.35
2023-01-27T22:25:36.059Z,100311.99
2023-01-27T22:28:04.117Z,100305.91
2023-01-27T22:30:32.755Z,100301.98
2023-01-27T22:33:05.510Z,100298.73
2023-01-27T22:35:33.739Z,100294.56
2023-01-27T22:38:02.638Z,100294.58
2023-01-27T22:40:32.695Z,100292.00
2023-01-27T22:43:00.694Z,100292.09
2023-01-27T22:45:28.751Z,100290.36
2023-01-27T22:47:57.754Z,100291.52
2023-01-27T22:50:26.026Z,100294.29
2023-01-27T22:52:54.227Z,100289.95
2023-01-27T22:55:22.351Z,100290.02
2023-01-27T22:57:51.138Z,100286.36
2023-01-27T23:00:19.759Z,100283.04
2023-01-27T23:02:47.962Z,100281.80
2023-01-27T23:05:17.729Z,100281.09
2023-01-27T23:07:47.531Z,100277.81
2023-01-27T23:10:16.749Z,100276.45
2023-01-27T23:12:44.721Z,100276.59
2023-01-27T23:15:13.224Z,100275.39
2023-01-27T23:17:41.916Z,100276.55
2023-01-27T23:20:10.883Z,100284.78
2023-01-27T23:22:39.730Z,100283.02
2023-01-27T23:25:08.417Z,100286.17
2023-01-27T23:27:36.929Z,100282.16
2023-01-27T23:30:09.133Z,100282.69
2023-01-27T23:32:40.304Z,100283.35
2023-01-27T23:35:09.044Z,100291.56
2023-01-27T23:37:37.356Z,100292.22
2023-01-27T23:40:07.702Z,100286.27
2023-01-27T23:42:35.988Z,100283.60
2023-01-27T23:45:04.588Z,100289.04
2023-01-27T23:47:32.730Z,100284.67
2023-01-27T23:50:00.765Z,100285.20
2023-01-27T23:52:29.960Z,100284.56
2023-01-27T23:54:58.078Z,100275.83
